»·PEaware :: N737MH KCNO-KPOC

N737MH :: KCNO-KPOC

FLIGHT INFORMATION

Flight Status: Arrived
Operator: Privately registered:
United States
More flights under this callsign
Pilot: Aakash P. (45250)
Aircraft: CESSNA 172 SKYHAWK
(C172)
More flights by this aircraft type
Origin: KCNO Chino
United States
Destination: KPOC Brackett
United States
More flights between these airports :: More routes between these airports
Route: V363 POM
File this flight plan on PilotEdge
Remarks: NO STARs
Altitude:
(Current/Filed)
4,000ft
Speed:
(Current/Filed)
115kts
Departed: 26-Sep-23 07:52 PM
Arrived: 26-Sep-23 08:20 PM
Distance/Time
Traveled:
10nm/0:27
Distance/Time
To Go:
Arrived

Flight Plot

Page will automatically refresh every two minutes.


Map Options




Map Legend


Flown Route
Filed Route
Departure Airport
Arrival Airport
Navaid (VOR, NDB)
Fix

Horizontal Profiles

Position Reports

Time Latitude Longitude Heading Altitude Ground
Speed
26-Sep-23 19:11 33.977355 -117.637261 357 632ft 0kts
26-Sep-23 19:12 33.977355 -117.637261 357 632ft 0kts
26-Sep-23 19:14 33.977355 -117.637261 357 632ft 0kts
26-Sep-23 19:15 33.977355 -117.637261 357 632ft 0kts
26-Sep-23 19:15 33.977355 -117.637261 357 632ft 0kts
26-Sep-23 19:16 33.977355 -117.637261 357 632ft 0kts
26-Sep-23 19:17 33.977355 -117.637261 357 632ft 0kts
26-Sep-23 19:18 33.977355 -117.637261 357 632ft 0kts
26-Sep-23 19:20 33.977355 -117.637261 357 632ft 0kts
26-Sep-23 19:20 33.977355 -117.637261 357 632ft 0kts
26-Sep-23 19:21 33.977355 -117.637261 357 632ft 0kts
26-Sep-23 19:29 33.977355 -117.637261 357 614ft 0kts
26-Sep-23 19:30 33.977355 -117.637261 357 614ft 0kts
26-Sep-23 19:31 33.977355 -117.637261 357 614ft 0kts
26-Sep-23 19:32 33.977355 -117.637261 357 614ft 0kts
26-Sep-23 19:33 33.977355 -117.637261 357 614ft 0kts
26-Sep-23 19:34 33.977355 -117.637261 357 614ft 0kts
26-Sep-23 19:35 33.977355 -117.637261 357 614ft 0kts
26-Sep-23 19:36 33.977355 -117.637261 357 614ft 0kts
26-Sep-23 19:37 33.977355 -117.637261 357 614ft 0kts
26-Sep-23 19:38 33.977355 -117.637261 357 614ft 0kts
26-Sep-23 19:39 33.977355 -117.637261 357 614ft 0kts
26-Sep-23 19:40 33.977355 -117.637261 357 632ft 0kts
26-Sep-23 19:41 33.977355 -117.637261 357 632ft 0kts
26-Sep-23 19:42 33.977355 -117.637261 357 632ft 0kts
26-Sep-23 19:43 33.977327 -117.636826 147 633ft 5kts
26-Sep-23 19:44 33.976936 -117.632035 89 643ft 26kts
26-Sep-23 19:45 33.976689 -117.630595 263 644ft 0kts
26-Sep-23 19:46 33.976689 -117.630594 263 644ft 0kts
26-Sep-23 19:47 33.976689 -117.630594 263 644ft 0kts
26-Sep-23 19:48 33.976689 -117.630594 263 644ft 0kts
26-Sep-23 19:49 33.976654 -117.630842 178 645ft 0kts
26-Sep-23 19:50 33.976654 -117.630842 178 645ft 0kts
26-Sep-23 19:51 33.975808 -117.642991 272 825ft 77kts
26-Sep-23 19:52 33.976565 -117.670100 270 1679ft 82kts
26-Sep-23 19:53 33.977421 -117.697912 271 2475ft 82kts
26-Sep-23 19:54 33.977910 -117.726036 271 3166ft 84kts
26-Sep-23 19:55 33.978430 -117.754727 273 3824ft 88kts
26-Sep-23 19:56 33.993379 -117.763190 61 4142ft 83kts
26-Sep-23 19:57 33.982387 -117.737081 127 4068ft 98kts
26-Sep-23 19:58 33.968820 -117.708385 106 3985ft 103kts
26-Sep-23 19:59 33.961973 -117.675238 106 4030ft 107kts
26-Sep-23 20:00 33.953603 -117.642041 109 4093ft 96kts
26-Sep-23 20:01 33.941488 -117.611449 112 4032ft 104kts
26-Sep-23 20:02 33.931259 -117.578532 104 4020ft 105kts
26-Sep-23 20:03 33.922756 -117.545042 115 4060ft 102kts
26-Sep-23 20:04 33.921076 -117.514073 30 4072ft 100kts
26-Sep-23 20:05 33.944966 -117.528610 333 4008ft 104kts
26-Sep-23 20:06 33.972814 -117.526651 3 4045ft 104kts
26-Sep-23 20:07 34.001856 -117.525071 359 4037ft 104kts
26-Sep-23 20:08 34.029842 -117.524101 2 3655ft 94kts
26-Sep-23 20:09 34.058589 -117.522623 4 3408ft 106kts
26-Sep-23 20:10 34.079031 -117.534360 271 3201ft 97kts
26-Sep-23 20:11 34.080038 -117.567018 273 3227ft 98kts
26-Sep-23 20:12 34.082584 -117.599496 271 3265ft 98kts
26-Sep-23 20:13 34.084518 -117.632032 272 3272ft 97kts
26-Sep-23 20:14 34.085884 -117.665089 271 3260ft 91kts
26-Sep-23 20:15 34.087382 -117.696094 272 2731ft 91kts
26-Sep-23 20:16 34.088738 -117.726556 273 2080ft 91kts
26-Sep-23 20:17 34.090041 -117.755228 273 1478ft 78kts
26-Sep-23 20:18 34.091165 -117.778716 273 1001ft 49kts
26-Sep-23 20:19 34.090876 -117.782454 225 993ft 0kts
26-Sep-23 20:20 34.090876 -117.782454 225 993ft 0kts
26-Sep-23 20:21 34.090876 -117.782454 225 993ft 0kts
26-Sep-23 20:22 34.091002 -117.789855 273 972ft 28kts
26-Sep-23 20:23 34.092880 -117.789292 91 975ft 8kts
26-Sep-23 20:24 34.093761 -117.785714 291 983ft 3kts

Navigation Log

Ident Type
Flight plan parsing failed, navigation log unavailable